createdAt,value
2024-03-13T00:02:22.840Z,8.57
2024-03-13T00:05:11.179Z,7.97
2024-03-13T00:07:56.441Z,7.75
2024-03-13T00:10:41.628Z,6.40
2024-03-13T00:13:28.844Z,6.73
2024-03-13T00:16:14.523Z,6.22
2024-03-13T00:18:59.617Z,5.75
2024-03-13T00:21:44.892Z,9.32
2024-03-13T00:24:30.131Z,6.10
2024-03-13T00:27:16.315Z,6.70
2024-03-13T00:30:01.401Z,5.53
2024-03-13T00:32:46.686Z,6.93
2024-03-13T00:35:31.679Z,4.80
2024-03-13T00:38:16.637Z,5.10
2024-03-13T00:41:02.246Z,6.03
2024-03-13T00:43:47.100Z,7.55
2024-03-13T00:46:32.124Z,5.47
2024-03-13T00:49:17.028Z,6.15
2024-03-13T00:52:02.862Z,4.75
2024-03-13T00:54:48.234Z,4.47
2024-03-13T00:57:33.407Z,5.50
2024-03-13T01:00:19.905Z,5.50
2024-03-13T01:03:06.179Z,6.15
2024-03-13T01:05:52.091Z,6.82
2024-03-13T01:08:37.284Z,6.60
2024-03-13T01:11:22.935Z,6.00
2024-03-13T01:14:08.099Z,5.63
2024-03-13T01:16:54.517Z,8.35
2024-03-13T01:19:39.648Z,5.80
2024-03-13T01:22:25.981Z,5.50
2024-03-13T01:25:12.087Z,6.13
2024-03-13T01:27:57.156Z,5.85
2024-03-13T01:30:44.956Z,5.50
2024-03-13T01:33:30.348Z,6.57
2024-03-13T01:36:15.641Z,5.67
2024-03-13T01:39:00.710Z,5.43
2024-03-13T01:42:04.236Z,7.18
2024-03-13T01:45:27.813Z,5.50
2024-03-13T01:48:31.763Z,4.68
2024-03-13T01:51:36.419Z,4.73
2024-03-13T01:54:40.471Z,5.95
2024-03-13T01:57:34.772Z,7.68
2024-03-13T02:00:38.437Z,5.13
2024-03-13T02:03:25.900Z,5.40
2024-03-13T02:06:10.844Z,7.30
2024-03-13T02:08:56.819Z,5.05
2024-03-13T02:11:42.808Z,8.52
2024-03-13T02:14:29.397Z,5.68
2024-03-13T02:17:14.968Z,5.10
2024-03-13T02:20:00.192Z,6.80
2024-03-13T02:22:46.039Z,7.78
2024-03-13T02:25:35.118Z,4.72
2024-03-13T02:28:33.747Z,5.78
2024-03-13T02:31:19.224Z,5.25
2024-03-13T02:34:05.987Z,5.90
2024-03-13T02:36:51.130Z,5.55
2024-03-13T02:39:36.171Z,5.00
2024-03-13T02:42:21.209Z,6.10
2024-03-13T02:45:06.856Z,6.60
2024-03-13T02:47:53.053Z,5.70
2024-03-13T02:50:37.878Z,4.55
2024-03-13T02:53:23.323Z,5.15
2024-03-13T02:56:08.742Z,5.25
2024-03-13T02:58:53.627Z,6.07
2024-03-13T03:01:39.106Z,5.23
2024-03-13T03:04:24.310Z,4.30
2024-03-13T03:07:09.498Z,4.70
2024-03-13T03:09:55.904Z,5.55
2024-03-13T03:12:44.645Z,4.80
2024-03-13T03:15:30.161Z,5.30
2024-03-13T03:18:15.704Z,4.78
2024-03-13T03:21:00.845Z,5.38
2024-03-13T03:23:46.203Z,5.30
2024-03-13T03:26:31.153Z,5.72
2024-03-13T03:29:16.388Z,4.83
2024-03-13T03:32:01.240Z,7.32
2024-03-13T03:34:46.519Z,4.63
2024-03-13T03:37:32.376Z,7.18
2024-03-13T03:40:17.444Z,4.65
2024-03-13T03:43:03.069Z,5.03
2024-03-13T03:45:48.718Z,4.13
2024-03-13T03:48:33.745Z,4.30
2024-03-13T03:51:19.156Z,7.57
2024-03-13T03:54:06.020Z,4.35
2024-03-13T03:56:53.136Z,4.20
2024-03-13T03:59:39.478Z,3.60
2024-03-13T04:02:24.782Z,4.00
2024-03-13T04:05:10.269Z,4.20
2024-03-13T04:07:55.486Z,3.42
2024-03-13T04:10:41.587Z,3.23
2024-03-13T04:13:26.512Z,4.53
2024-03-13T04:16:11.611Z,3.33
2024-03-13T04:18:56.736Z,3.13
2024-03-13T04:21:41.934Z,3.35
2024-03-13T04:24:27.223Z,3.10
2024-03-13T04:27:12.296Z,7.47
2024-03-13T04:29:57.378Z,3.83
2024-03-13T04:32:42.310Z,4.45
2024-03-13T04:35:27.558Z,3.33
2024-03-13T04:38:14.301Z,5.03
2024-03-13T04:40:59.356Z,3.83
2024-03-13T04:43:44.980Z,4.25
2024-03-13T04:46:30.020Z,3.00
2024-03-13T04:49:15.016Z,4.50
2024-03-13T04:52:00.301Z,4.77
2024-03-13T04:54:45.325Z,6.15
2024-03-13T04:57:30.348Z,4.40
2024-03-13T05:00:15.760Z,4.75
2024-03-13T05:03:00.702Z,3.60
2024-03-13T05:05:46.837Z,3.93
2024-03-13T05:08:31.849Z,3.33
2024-03-13T05:11:18.944Z,3.53
2024-03-13T05:14:03.557Z,4.18
2024-03-13T05:16:48.487Z,3.25
2024-03-13T05:19:33.836Z,3.80
2024-03-13T05:22:20.410Z,4.47
2024-03-13T05:25:06.058Z,3.35
2024-03-13T05:27:51.287Z,4.63
2024-03-13T05:30:38.852Z,4.65
2024-03-13T05:33:24.056Z,4.17
2024-03-13T05:36:12.416Z,3.85
2024-03-13T05:38:58.860Z,3.80
2024-03-13T05:41:46.900Z,3.38
2024-03-13T05:44:31.715Z,3.70
2024-03-13T05:47:16.703Z,4.80
2024-03-13T05:50:01.801Z,3.45
2024-03-13T05:52:47.260Z,5.85
2024-03-13T05:55:32.623Z,3.72
2024-03-13T05:58:17.919Z,4.65
2024-03-13T06:01:03.417Z,6.47
2024-03-13T06:03:48.898Z,4.18
2024-03-13T06:06:33.930Z,4.53
2024-03-13T06:09:18.778Z,5.18
2024-03-13T06:12:04.249Z,5.22
2024-03-13T06:14:49.580Z,5.63
2024-03-13T06:17:35.868Z,5.35
2024-03-13T06:20:22.043Z,4.85
2024-03-13T06:23:07.787Z,7.43
2024-03-13T06:25:53.618Z,6.75
2024-03-13T06:28:57.327Z,5.90
2024-03-13T06:31:43.719Z,6.15
2024-03-13T06:34:28.807Z,6.30
2024-03-13T06:37:14.543Z,5.82
2024-03-13T06:39:59.892Z,7.15
2024-03-13T06:42:45.746Z,5.93
2024-03-13T06:45:38.735Z,6.70
2024-03-13T06:48:27.505Z,5.50
2024-03-13T06:51:15.550Z,6.88
2024-03-13T06:54:01.262Z,6.10
2024-03-13T06:56:48.605Z,6.13
2024-03-13T06:59:35.083Z,4.85
2024-03-13T07:02:20.399Z,7.40
2024-03-13T07:05:05.751Z,6.93
2024-03-13T07:07:50.720Z,5.10
2024-03-13T07:10:35.664Z,5.73
2024-03-13T07:13:20.904Z,4.82
2024-03-13T07:16:06.517Z,5.30
2024-03-13T07:18:52.142Z,5.60
2024-03-13T07:21:38.435Z,6.47
2024-03-13T07:24:24.880Z,7.43
2024-03-13T07:27:09.956Z,3.80
2024-03-13T07:29:55.173Z,3.55
2024-03-13T07:32:40.810Z,4.70
2024-03-13T07:35:26.299Z,6.53
2024-03-13T07:38:11.673Z,3.17
2024-03-13T07:40:56.780Z,8.05
2024-03-13T07:43:43.057Z,4.60
2024-03-13T07:46:27.935Z,3.63
2024-03-13T07:49:14.427Z,5.25
2024-03-13T07:52:02.511Z,5.30
2024-03-13T07:54:47.589Z,4.53
2024-03-13T07:57:32.581Z,4.15
2024-03-13T08:00:18.001Z,2.90
2024-03-13T08:03:03.253Z,3.00
2024-03-13T09:07:11.739Z,7.23
2024-03-13T09:09:57.113Z,6.07
2024-03-13T09:12:42.201Z,5.65
2024-03-13T09:15:27.199Z,7.00
2024-03-13T09:18:12.205Z,6.55
2024-03-13T09:20:57.694Z,5.90
2024-03-13T09:23:43.943Z,7.93
2024-03-13T09:26:34.477Z,5.20
2024-03-13T09:29:19.935Z,5.68
2024-03-13T09:32:05.684Z,5.43
2024-03-13T09:34:52.181Z,3.80
2024-03-13T09:37:38.513Z,4.78
2024-03-13T09:40:24.208Z,5.82
2024-03-13T09:43:09.605Z,3.28
2024-03-13T09:45:54.612Z,4.55
2024-03-13T09:48:43.575Z,3.87
2024-03-13T09:51:29.785Z,3.95
2024-03-13T09:54:16.025Z,5.57
2024-03-13T09:57:01.352Z,3.65
2024-03-13T09:59:47.886Z,3.70
2024-03-13T10:02:38.145Z,3.97
2024-03-13T10:05:24.757Z,4.93
2024-03-13T10:08:11.051Z,5.03
2024-03-13T10:11:01.641Z,4.82
2024-03-13T10:13:47.350Z,3.72
2024-03-13T10:16:34.306Z,3.83
2024-03-13T10:19:22.521Z,4.28
2024-03-13T10:22:07.973Z,3.50
2024-03-13T10:24:54.675Z,5.20
2024-03-13T10:27:40.821Z,3.60
2024-03-13T10:30:26.249Z,4.63
2024-03-13T10:33:11.623Z,2.42
2024-03-13T10:35:56.546Z,3.33
2024-03-13T10:38:42.616Z,3.20
2024-03-13T10:41:31.413Z,3.20
2024-03-13T10:44:16.616Z,3.13
2024-03-13T10:47:02.954Z,2.63
2024-03-13T10:49:50.463Z,3.03
2024-03-13T10:52:37.017Z,3.03
2024-03-13T10:55:26.175Z,3.38
2024-03-13T10:58:19.674Z,2.70
2024-03-13T11:01:04.776Z,3.55
2024-03-13T11:04:02.394Z,3.28
2024-03-13T11:06:47.694Z,4.65
2024-03-13T11:09:32.725Z,2.95
2024-03-13T11:12:20.450Z,2.37
2024-03-13T11:15:07.325Z,3.13
2024-03-13T11:18:00.556Z,2.38
2024-03-13T11:21:04.250Z,3.85
2024-03-13T11:23:57.859Z,2.53
2024-03-13T11:26:43.722Z,3.00
2024-03-13T11:29:34.629Z,3.05
2024-03-13T11:32:20.236Z,3.28
2024-03-13T11:35:06.719Z,2.53
2024-03-13T11:37:52.329Z,3.08
2024-03-13T11:40:37.809Z,3.97
2024-03-13T11:43:23.906Z,3.00
2024-03-13T11:46:12.899Z,4.13
2024-03-13T11:49:01.488Z,2.97
2024-03-13T11:52:12.344Z,2.55
2024-03-13T11:54:57.780Z,3.90
2024-03-13T11:57:43.078Z,3.03
2024-03-13T12:00:29.801Z,3.80
2024-03-13T12:03:15.739Z,3.22
2024-03-13T12:06:01.314Z,2.80
2024-03-13T12:08:46.655Z,4.27
2024-03-13T12:11:32.767Z,4.10
2024-03-13T12:14:18.002Z,4.78
2024-03-13T12:17:03.148Z,4.10
2024-03-13T12:19:48.337Z,3.70
2024-03-13T12:22:33.312Z,7.17
2024-03-13T12:25:22.718Z,4.63
2024-03-13T12:28:18.087Z,4.13
2024-03-13T12:31:06.398Z,4.13
2024-03-13T12:33:55.195Z,3.50
2024-03-13T12:36:46.270Z,3.13
2024-03-13T12:39:32.812Z,4.20
2024-03-13T12:42:17.943Z,4.75
2024-03-13T12:45:05.959Z,5.47
2024-03-13T12:47:51.102Z,3.60
2024-03-13T12:50:36.111Z,5.37
2024-03-13T12:53:21.860Z,3.40
2024-03-13T12:56:11.781Z,2.28
2024-03-13T12:58:58.010Z,3.03
2024-03-13T13:01:43.257Z,3.67
2024-03-13T13:04:28.534Z,3.13
2024-03-13T13:07:16.765Z,2.75
2024-03-13T13:10:07.581Z,5.55
2024-03-13T13:12:54.012Z,1.75
2024-03-13T13:15:39.216Z,1.88
2024-03-13T13:18:25.809Z,2.33
2024-03-13T13:21:10.814Z,2.47
2024-03-13T13:23:55.832Z,4.68
2024-03-13T13:26:40.827Z,4.45
2024-03-13T13:29:25.910Z,2.60
2024-03-13T13:32:11.004Z,6.00
2024-03-13T13:34:56.921Z,3.20
2024-03-13T13:37:45.756Z,3.40
2024-03-13T13:40:31.758Z,4.13
2024-03-13T13:43:17.097Z,4.60
2024-03-13T13:46:08.826Z,3.23
2024-03-13T13:48:54.138Z,2.72
2024-03-13T13:51:39.154Z,3.40
2024-03-13T13:54:24.372Z,2.53
2024-03-13T13:57:10.509Z,2.22
2024-03-13T13:59:55.655Z,1.60
2024-03-13T14:02:40.839Z,2.33
2024-03-13T14:05:28.483Z,4.32
2024-03-13T14:08:15.921Z,2.65
2024-03-13T14:11:02.091Z,1.85
2024-03-13T14:13:49.931Z,2.40
2024-03-13T14:16:35.369Z,1.70
2024-03-13T14:19:22.465Z,1.17
2024-03-13T14:22:07.436Z,2.55
2024-03-13T14:24:53.165Z,1.23
2024-03-13T14:27:41.677Z,5.90
2024-03-13T14:30:26.803Z,2.95
2024-03-13T14:33:12.387Z,2.00
2024-03-13T14:35:57.784Z,1.63
2024-03-13T14:38:43.029Z,1.67
2024-03-13T14:41:27.795Z,1.57
2024-03-13T14:44:13.131Z,3.05
2024-03-13T14:46:58.142Z,2.30
2024-03-13T14:49:43.142Z,1.58
2024-03-13T14:52:28.188Z,1.63
2024-03-13T14:55:13.351Z,2.00
2024-03-13T14:57:58.665Z,1.63
2024-03-13T15:00:46.019Z,1.63
2024-03-13T15:03:33.015Z,1.90
2024-03-13T15:06:18.351Z,1.80
2024-03-13T15:09:04.337Z,1.90
2024-03-13T15:11:49.576Z,1.38
2024-03-13T15:14:35.307Z,1.65
2024-03-13T15:17:24.800Z,1.77
2024-03-13T15:20:14.028Z,2.15
2024-03-13T15:22:59.291Z,2.43
2024-03-13T15:25:44.517Z,1.63
2024-03-13T15:28:30.143Z,1.38
2024-03-13T15:31:15.411Z,2.60
2024-03-13T15:34:00.739Z,5.88
2024-03-13T15:36:45.933Z,2.20
2024-03-13T15:39:30.907Z,1.08
2024-03-13T15:42:19.316Z,1.95
2024-03-13T15:45:05.685Z,2.28
2024-03-13T15:47:50.828Z,1.50
2024-03-13T15:50:38.906Z,1.70
2024-03-13T15:53:23.745Z,2.92
2024-03-13T15:56:09.926Z,1.63
2024-03-13T15:58:55.262Z,2.05
2024-03-13T16:01:40.519Z,2.17
2024-03-13T16:04:26.579Z,2.80
2024-03-13T16:07:12.710Z,3.65
2024-03-13T16:09:57.624Z,2.85
2024-03-13T16:12:43.507Z,2.58
2024-03-13T16:15:29.053Z,1.83
2024-03-13T16:18:14.962Z,2.63
2024-03-13T16:20:59.833Z,3.50
2024-03-13T16:23:45.919Z,3.35
2024-03-13T16:26:31.141Z,2.00
2024-03-13T16:29:16.169Z,2.45
2024-03-13T16:32:01.437Z,3.73
2024-03-13T16:34:49.196Z,3.65
2024-03-13T16:37:34.489Z,3.92
2024-03-13T16:40:19.814Z,3.83
2024-03-13T16:43:04.814Z,3.00
2024-03-13T16:45:50.265Z,3.23
2024-03-13T16:48:35.723Z,4.65
2024-03-13T16:51:20.893Z,4.25
2024-03-13T16:54:06.727Z,4.15
2024-03-13T16:56:52.035Z,5.35
2024-03-13T16:59:37.827Z,2.83
2024-03-13T17:02:22.918Z,3.78
2024-03-13T17:05:09.604Z,3.17
2024-03-13T17:07:56.060Z,4.65
2024-03-13T17:10:41.654Z,3.33
2024-03-13T17:13:27.040Z,4.47
2024-03-13T17:16:12.110Z,5.05
2024-03-13T17:18:58.020Z,5.50
2024-03-13T17:21:43.200Z,8.35
2024-03-13T17:24:29.638Z,5.60
2024-03-13T17:27:14.868Z,5.43
2024-03-13T17:30:02.328Z,5.00
2024-03-13T17:32:47.433Z,4.15
2024-03-13T17:35:32.601Z,5.65
2024-03-13T17:38:17.486Z,3.28
2024-03-13T17:41:02.465Z,3.53
2024-03-13T17:43:49.562Z,2.97
2024-03-13T17:46:34.880Z,4.15
2024-03-13T17:49:20.041Z,3.30
2024-03-13T17:52:05.876Z,4.28
2024-03-13T17:54:53.371Z,4.63
2024-03-13T17:57:38.682Z,6.10
2024-03-13T18:00:24.958Z,3.05
2024-03-13T18:03:11.653Z,4.57
2024-03-13T18:05:57.256Z,3.95
2024-03-13T18:08:42.221Z,3.60
2024-03-13T18:11:28.110Z,4.13
2024-03-13T18:14:15.495Z,4.75
2024-03-13T18:17:00.681Z,2.17
2024-03-13T18:19:45.717Z,4.60
2024-03-13T18:22:31.105Z,2.47
2024-03-13T18:25:16.362Z,2.97
2024-03-13T18:28:03.152Z,3.92
2024-03-13T18:30:48.554Z,4.03
2024-03-13T18:33:34.109Z,2.42
2024-03-13T18:36:19.814Z,5.70
2024-03-13T18:39:08.003Z,4.43
2024-03-13T18:41:53.138Z,3.50
2024-03-13T18:44:39.563Z,5.18
2024-03-13T18:47:24.981Z,6.95
2024-03-13T18:50:12.371Z,3.10
2024-03-13T18:52:58.126Z,3.25
2024-03-13T18:55:44.796Z,3.55
2024-03-13T18:58:33.712Z,2.35
2024-03-13T19:01:20.416Z,3.97
2024-03-13T19:04:06.044Z,4.23
2024-03-13T19:06:51.349Z,5.18
2024-03-13T19:09:36.329Z,4.03
2024-03-13T19:12:21.671Z,3.70
2024-03-13T19:15:08.566Z,3.22
2024-03-13T19:17:53.942Z,3.07
2024-03-13T19:20:39.089Z,3.80
2024-03-13T19:23:24.249Z,4.05
2024-03-13T19:26:09.186Z,4.05
2024-03-13T19:28:54.295Z,4.30
2024-03-13T19:31:43.117Z,3.00
2024-03-13T19:34:29.929Z,3.00
2024-03-13T19:37:15.508Z,3.63
2024-03-13T19:40:06.165Z,7.35
2024-03-13T19:42:51.137Z,6.18
2024-03-13T19:45:37.652Z,4.37
2024-03-13T19:48:23.545Z,3.80
2024-03-13T19:51:09.010Z,4.57
2024-03-13T19:53:54.155Z,5.47
2024-03-13T19:56:39.433Z,5.25
2024-03-13T19:59:24.426Z,6.10
2024-03-13T20:02:09.336Z,5.70
2024-03-13T20:04:56.063Z,6.30
2024-03-13T20:07:41.509Z,6.70
2024-03-13T20:10:26.668Z,5.28
2024-03-13T20:13:11.789Z,4.53
2024-03-13T20:15:57.606Z,5.72
2024-03-13T20:18:43.693Z,5.47
2024-03-13T20:21:29.493Z,7.85
2024-03-13T20:24:14.809Z,6.53
2024-03-13T20:26:59.918Z,4.37
2024-03-13T20:29:45.021Z,4.43
2024-03-13T20:32:30.053Z,5.95
2024-03-13T20:35:15.279Z,6.07
2024-03-13T20:38:00.542Z,5.22
2024-03-13T20:40:48.439Z,7.60
2024-03-13T20:43:33.499Z,9.35
2024-03-13T20:46:18.596Z,8.07
2024-03-13T20:49:05.302Z,11.02
2024-03-13T20:51:50.392Z,12.98
2024-03-13T20:54:40.525Z,11.07
2024-03-13T20:57:27.512Z,8.77
2024-03-13T21:00:17.066Z,9.00
2024-03-13T21:03:02.710Z,7.75
2024-03-13T21:05:48.165Z,6.55
2024-03-13T21:08:33.930Z,5.47
2024-03-13T21:11:23.259Z,5.57
2024-03-13T21:14:10.660Z,7.85
2024-03-13T21:16:55.992Z,4.65
2024-03-13T21:19:50.177Z,8.05
2024-03-13T21:22:37.289Z,6.20
2024-03-13T21:25:22.611Z,7.97
2024-03-13T21:28:08.042Z,7.72
2024-03-13T21:30:53.396Z,6.50
2024-03-13T21:33:38.842Z,6.53
2024-03-13T21:36:24.637Z,6.80
2024-03-13T21:39:15.204Z,5.38
2024-03-13T21:42:00.227Z,7.32
2024-03-13T21:44:45.631Z,6.70
2024-03-13T21:47:30.627Z,5.68
2024-03-13T21:50:16.349Z,8.17
2024-03-13T21:53:01.273Z,11.38
2024-03-13T21:55:47.497Z,13.88
2024-03-13T21:58:34.534Z,12.90
2024-03-13T22:01:19.735Z,7.63
2024-03-13T22:04:05.341Z,7.90
2024-03-13T22:06:50.920Z,7.05
2024-03-13T22:09:36.314Z,5.93
2024-03-13T22:12:21.581Z,6.35
2024-03-13T22:15:07.407Z,5.05
2024-03-13T22:17:53.642Z,7.40
2024-03-13T22:20:43.668Z,7.68
2024-03-13T22:23:29.043Z,7.13
2024-03-13T22:26:18.256Z,5.68
2024-03-13T22:29:03.664Z,7.22
2024-03-13T22:31:48.700Z,6.87
2024-03-13T22:34:34.186Z,5.25
2024-03-13T22:37:19.445Z,5.13
2024-03-13T22:40:08.579Z,6.07
2024-03-13T22:42:57.140Z,8.48
2024-03-13T22:45:42.375Z,8.37
2024-03-13T22:48:27.406Z,7.40
2024-03-13T22:51:16.045Z,6.15
2024-03-13T22:54:03.286Z,5.28
2024-03-13T22:56:48.538Z,4.70
2024-03-13T22:59:33.706Z,7.47
2024-03-13T23:02:21.256Z,5.18
2024-03-13T23:05:08.859Z,6.60
2024-03-13T23:07:54.190Z,5.32
2024-03-13T23:10:41.223Z,6.40
2024-03-13T23:13:26.427Z,5.40
2024-03-13T23:16:12.677Z,5.72
2024-03-13T23:18:57.888Z,4.85
2024-03-13T23:21:44.072Z,4.90
2024-03-13T23:24:30.399Z,5.90
2024-03-13T23:27:15.847Z,7.73
2024-03-13T23:30:00.996Z,6.60
2024-03-13T23:32:47.125Z,5.30
2024-03-13T23:35:33.288Z,7.82
2024-03-13T23:38:19.097Z,5.60
2024-03-13T23:41:06.307Z,7.73
2024-03-13T23:43:51.726Z,9.30
2024-03-13T23:46:39.293Z,8.40
2024-03-13T23:49:24.666Z,9.48
2024-03-13T23:52:10.866Z,8.38
2024-03-13T23:54:56.951Z,8.63
2024-03-13T23:57:45.265Z,6.55
